Dades meteomassalio
Diari Summary for Juliol 15, 2017 Units:  Metric    English   Both
« Previous Day
Next Day »
Diari Semanal Mensual Anual Personalitzat
  Maxima: Minima: Mijana:
Temperatura: -17.8 °C -8 °C -3.8 °C
Rosada: -17.8 °C -11.4 °C -10 °C
Humitat: Humidity % 35 % 51 %
Velocitat del vent: 0 km/h 0 km/h 9.2 km/h
Racha vent: 0 km/h - -
Vent:- - SW
Pressio: 0 hPa 34361.1 hPa -
Pluja: 0 mm    
Historical Graphs
 
 
Tabular Data for Juliol 15, 2017
Time Temperature Dew Point Pressure Wind Wind Speed Wind Gust Humidity Rainfall Rate (Hourly) solar Conditions
-17.8 °C -17.8 °C 0 hPa Calm     Humidity % 0 mm SolarRadiationWatts/m^2 W/m2 Conditions
00:04 -4.1 °C -11.3 °C 34452.6 hPa WNW 9 km/h 9 km/h 44 % 0 mm 0.0 W/m2 CLR
00:09 -4.2 °C -11.2 °C 34452.6 hPa WNW 18.2 km/h 18.2 km/h 45 % 0 mm 0.0 W/m2 CLR
00:14 -4.2 °C -11.3 °C 34452.6 hPa NNW 20.9 km/h 20.9 km/h 45 % 0 mm 0.0 W/m2 CLR
00:19 -4.3 °C -11.3 °C 34452.6 hPa West 23.3 km/h 23.3 km/h 45 % 0 mm 0.0 W/m2 CLR
00:24 -4.3 °C -11.2 °C 34452.6 hPa NW 9 km/h 9 km/h 46 % 0 mm 0.0 W/m2 CLR
00:29 -4.4 °C -11.3 °C 34452.6 hPa Calm     46 % 0 mm 0.0 W/m2 CLR
00:34 -4.5 °C -11.3 °C 34462.7 hPa Calm   1.3 km/h 46 % 0 mm 0.0 W/m2 CLR
00:39 -4.6 °C -11.2 °C 34462.7 hPa WNW 23.8 km/h 23.8 km/h 47 % 0 mm 0.0 W/m2 CLR
00:44 -4.6 °C -11.1 °C 34462.7 hPa WNW 9 km/h 9 km/h 48 % 0 mm 0.0 W/m2 CLR
00:49 -4.7 °C -11.2 °C 34462.7 hPa WNW 15 km/h 15 km/h 48 % 0 mm 0.0 W/m2 CLR
00:54 -4.8 °C -11.1 °C 34476.3 hPa WNW 17.9 km/h 17.9 km/h 49 % 0 mm 0.0 W/m2 CLR
00:59 -4.9 °C -11.2 °C 34462.7 hPa WNW 17.9 km/h 17.9 km/h 49 % 0 mm 0.0 W/m2 CLR
01:04 -4.9 °C -11.1 °C 34462.7 hPa WNW 9 km/h 9 km/h 50 % 0 mm 0.0 W/m2 CLR
01:09 -5.1 °C -11 °C 34476.3 hPa Calm     51 % 0 mm 0.0 W/m2 CLR
01:14 -5.1 °C -11.1 °C 34476.3 hPa WNW 29.8 km/h 29.8 km/h 51 % 0 mm 0.0 W/m2 CLR
01:19 -5.2 °C -11.1 °C 34476.3 hPa WNW 17.9 km/h   51 % 0 mm 0.0 W/m2 CLR
01:24 -5.2 °C -11 °C 34476.3 hPa NNW 20.9 km/h 20.9 km/h 52 % 0 mm 0.0 W/m2 CLR
01:29 -5.3 °C -11.1 °C 34476.3 hPa NW 20.9 km/h 20.9 km/h 52 % 0 mm 0.0 W/m2 CLR
01:34 -5.4 °C -11.1 °C 34476.3 hPa WNW 23.8 km/h 23.8 km/h 52 % 0 mm 0.0 W/m2 CLR
01:39 -5.4 °C -11.1 °C 34476.3 hPa NW 23.8 km/h 23.8 km/h 52 % 0 mm 0.0 W/m2 CLR
01:44 -5.4 °C -11 °C 34476.3 hPa West 15 km/h 15 km/h 53 % 0 mm 0.0 W/m2 CLR
01:49 -5.4 °C -11 °C 34476.3 hPa West 11.9 km/h 11.9 km/h 53 % 0 mm 0.0 W/m2 CLR
01:54 -5.5 °C -11.1 °C 34486.4 hPa WNW 15.6 km/h 15.6 km/h 53 % 0 mm 0.0 W/m2 CLR
01:59 -5.6 °C -11.1 °C 34486.4 hPa West 26.9 km/h 26.9 km/h 53 % 0 mm 0.0 W/m2 CLR
02:04 -5.6 °C -11 °C 34486.4 hPa West 3.1 km/h   54 % 0 mm 0.0 W/m2 CLR
02:09 -5.7 °C -11.1 °C 34486.4 hPa WNW 35.7 km/h 35.7 km/h 54 % 0 mm 0.0 W/m2 CLR
02:14 -5.8 °C -11.2 °C 34486.4 hPa West 17.9 km/h 17.9 km/h 54 % 0 mm 0.0 W/m2 CLR
02:19 -5.8 °C -11.1 °C 34486.4 hPa WNW 2.6 km/h 2.6 km/h 55 % 0 mm 0.0 W/m2 CLR
02:24 -5.9 °C -11.1 °C 34486.4 hPa WNW 29.8 km/h 29.8 km/h 55 % 0 mm 0.0 W/m2 CLR
02:30 -5.9 °C -11.1 °C 34486.4 hPa WNW 17.9 km/h 17.9 km/h 55 % 0 mm 0.0 W/m2 CLR
02:35 -5.9 °C -11.2 °C 34486.4 hPa Calm     55 % 0 mm 0.0 W/m2 CLR
02:40 -6 °C -11.1 °C 34486.4 hPa Calm     56 % 0 mm 0.0 W/m2 CLR
02:45 -6.1 °C -11.1 °C 34486.4 hPa Calm     56 % 0 mm 0.0 W/m2 CLR
02:50 -6.1 °C -11 °C 34486.4 hPa Calm     57 % 0 mm 0.0 W/m2 CLR
02:55 -6.2 °C -11.1 °C 34486.4 hPa Calm   6 km/h 57 % 0 mm 0.0 W/m2 CLR
03:00 -6.2 °C -11.1 °C 34486.4 hPa WSW 11.9 km/h   57 % 0 mm 0.0 W/m2 CLR
03:05 -6.2 °C -11.2 °C 34486.4 hPa Calm     57 % 0 mm 0.0 W/m2 CLR
03:10 -6.3 °C -11.1 °C 34486.4 hPa WSW 15 km/h 15 km/h 58 % 0 mm 0.0 W/m2 CLR
03:15 -6.3 °C -11.1 °C 34486.4 hPa West 20.9 km/h 20.9 km/h 58 % 0 mm 0.0 W/m2 CLR
03:20 -6.3 °C -10.9 °C 34486.4 hPa WSW 23.3 km/h 23.3 km/h 59 % 0 mm 0.0 W/m2 CLR
03:25 -6.4 °C -11 °C 34486.4 hPa West 17.9 km/h 17.9 km/h 59 % 0 mm 0.0 W/m2 CLR
03:30 -6.4 °C -11 °C 34486.4 hPa West 15 km/h 15 km/h 59 % 0 mm 0.0 W/m2 CLR
03:35 -6.5 °C -11.1 °C 34486.4 hPa West 15.6 km/h 15.6 km/h 59 % 0 mm 0.0 W/m2 CLR
03:40 -6.5 °C -11.1 °C 34486.4 hPa WSW 9 km/h 9 km/h 59 % 0 mm 0.0 W/m2 CLR
03:45 -6.6 °C -11 °C 34486.4 hPa WNW 10.3 km/h 10.3 km/h 60 % 0 mm 0.0 W/m2 CLR
03:50 -6.6 °C -11.1 °C 34486.4 hPa West 10.3 km/h 10.3 km/h 60 % 0 mm 0.0 W/m2 CLR
03:55 -6.6 °C -11.1 °C 34486.4 hPa West 7.7 km/h 7.7 km/h 60 % 0 mm 0.0 W/m2 CLR
04:00 -6.7 °C -11.2 °C 34486.4 hPa West 9 km/h 9 km/h 60 % 0 mm 0.0 W/m2 CLR
04:05 -6.7 °C -11.2 °C 34486.4 hPa West 9 km/h 9 km/h 60 % 0 mm 0.0 W/m2 CLR
04:10 -6.8 °C -11.2 °C 34486.4 hPa Calm     60 % 0 mm 0.0 W/m2 CLR
04:15 -6.8 °C -11.1 °C 34486.4 hPa West 9 km/h 9 km/h 61 % 0 mm 0.0 W/m2 CLR
04:20 -6.8 °C -11.2 °C 34486.4 hPa West 11.9 km/h 11.9 km/h 61 % 0 mm 0.0 W/m2 CLR
04:25 -6.9 °C -11.2 °C 34486.4 hPa WNW 17.9 km/h 17.9 km/h 61 % 0 mm 0.0 W/m2 CLR
04:30 -6.9 °C -11.2 °C 34486.4 hPa Calm   0.3 km/h 61 % 0 mm 0.0 W/m2 CLR
04:35 -6.9 °C -11.1 °C 34486.4 hPa Calm     62 % 0 mm 0.0 W/m2 CLR
04:40 -7 °C -11.2 °C 34486.4 hPa Calm     62 % 0 mm 0.0 W/m2 CLR
04:45 -7.1 °C -11.2 °C 34486.4 hPa West 17.9 km/h 17.9 km/h 62 % 0 mm 0.0 W/m2 CLR
04:50 -7.1 °C -11.2 °C 34486.4 hPa WSW 15 km/h 15 km/h 62 % 0 mm 0.0 W/m2 CLR
04:55 -7.1 °C -11.2 °C 34486.4 hPa Calm     62 % 0 mm 0.0 W/m2 CLR
05:00 -7.1 °C -11.3 °C 34486.4 hPa Calm     62 % 0 mm 0.0 W/m2 CLR
05:05 -7.2 °C -11.2 °C 34486.4 hPa Calm     63 % 0 mm 0.0 W/m2 CLR
05:10 -7.2 °C -11.2 °C 34486.4 hPa Calm     63 % 0 mm 0.0 W/m2 CLR
05:16 -7.2 °C -11.2 °C 34486.4 hPa Calm     63 % 0 mm 0.0 W/m2 CLR
05:21 -7.3 °C -11.3 °C 34486.4 hPa Calm     63 % 0 mm 0.0 W/m2 CLR
05:26 -7.3 °C -11.3 °C 34486.4 hPa Calm     63 % 0 mm 0.0 W/m2 CLR
05:31 -7.3 °C -11.3 °C 34496.6 hPa Calm     63 % 0 mm 0.0 W/m2 CLR
05:36 -7.3 °C -11.3 °C 34496.6 hPa Calm     63 % 0 mm 0.0 W/m2 CLR
05:41 -7.3 °C -11.3 °C 34496.6 hPa Calm     63 % 0 mm 0.0 W/m2 CLR
05:46 -7.3 °C -11.2 °C 34496.6 hPa Calm     64 % 0 mm 0.0 W/m2 CLR
05:51 -7.4 °C -11.2 °C 34496.6 hPa Calm     64 % 0 mm 0.0 W/m2 CLR
05:56 -7.4 °C -11.3 °C 34496.6 hPa Calm     64 % 0 mm 0.0 W/m2 CLR
06:01 -7.4 °C -11.3 °C 34496.6 hPa Calm     64 % 0 mm 0.0 W/m2 CLR
06:06 -7.5 °C -11.2 °C 34496.6 hPa Calm     65 % 0 mm 0.0 W/m2 CLR
06:11 -7.6 °C -11.3 °C 34496.6 hPa Calm     65 % 0 mm 0.0 W/m2 CLR
06:16 -7.7 °C -11.2 °C 34496.6 hPa Calm     66 % 0 mm 0.0 W/m2 CLR
06:21 -7.7 °C -11.3 °C 34496.6 hPa Calm     66 % 0 mm 0.0 W/m2 CLR
06:26 -7.9 °C -11.3 °C 34510.1 hPa Calm     67 % 0 mm 0.0 W/m2 CLR
06:31 -7.9 °C -11.3 °C 34510.1 hPa Calm     67 % 0 mm 0.0 W/m2 OVC
06:36 -7.9 °C -11.3 °C 34510.1 hPa Calm     67 % 0 mm 0.0 W/m2 OVC
06:41 -7.8 °C -11.3 °C 34510.1 hPa Calm     67 % 0 mm 5.0 W/m2 OVC
06:46 -7.9 °C -11.3 °C 34510.1 hPa Calm     67 % 0 mm 7.0 W/m2 BKN
06:51 -7.9 °C -11.4 °C 34510.1 hPa Calm     67 % 0 mm 12.0 W/m2 BKN
06:56 -8 °C -11.3 °C 34510.1 hPa WSW 2.6 km/h 2.6 km/h 68 % 0 mm 14.0 W/m2 BKN
07:01 -8 °C -11.3 °C 34510.1 hPa Calm     68 % 0 mm 19.0 W/m2 BKN
07:06 -8 °C -11.3 °C 34510.1 hPa Calm     68 % 0 mm 21.0 W/m2 BKN
07:11 -7.9 °C -11.3 °C 34510.1 hPa West 9 km/h 9 km/h 68 % 0 mm 26.0 W/m2 BKN
07:16 -7.9 °C -11.2 °C 34510.1 hPa West 7.7 km/h 7.7 km/h 68 % 0 mm 32.0 W/m2 BKN
07:21 -7.8 °C -11.2 °C 34510.1 hPa WSW 3.1 km/h 3.1 km/h 68 % 0 mm 39.0 W/m2 BKN
07:26 -7.8 °C -11.2 °C 34520.3 hPa Calm     67 % 0 mm 47.0 W/m2 SCT
07:31 -7.8 °C -11.1 °C 34520.3 hPa WSW 9 km/h 9 km/h 68 % 0 mm 58.0 W/m2 SCT
07:36 -7.7 °C -11.1 °C 34520.3 hPa West 11.9 km/h 11.9 km/h 68 % 0 mm 69.0 W/m2 FEW
07:41 -7.7 °C -11.1 °C 34520.3 hPa West 3.1 km/h 3.1 km/h 67 % 0 mm 77.0 W/m2 FEW
07:46 -7.6 °C -11 °C 34520.3 hPa WNW 23.3 km/h 23.3 km/h 67 % 0 mm 90.0 W/m2 FEW
07:51 -7.4 °C -11.1 °C 34520.3 hPa West 11.9 km/h 11.9 km/h 66 % 0 mm 105.0 W/m2 CLR
07:56 -7.3 °C -10.9 °C 34520.3 hPa West 15 km/h 15 km/h 66 % 0 mm 121.0 W/m2 CLR
08:01 -7.3 °C -10.9 °C 34520.3 hPa WNW 20.8 km/h 20.8 km/h 66 % 0 mm 135.0 W/m2 CLR
08:06 -7.2 °C -10.9 °C 34520.3 hPa West 23.8 km/h 23.8 km/h 65 % 0 mm 151.0 W/m2 CLR
08:11 -7.2 °C -10.9 °C 34520.3 hPa West 17.9 km/h 17.9 km/h 65 % 0 mm 165.0 W/m2 CLR
08:16 -7.1 °C -10.8 °C 34520.3 hPa WNW 15 km/h 15 km/h 65 % 0 mm 186.0 W/m2 CLR
08:21 -7.1 °C -10.9 °C 34520.3 hPa WSW 20.9 km/h 20.9 km/h 64 % 0 mm 200.0 W/m2 CLR
08:26 -7 °C -10.9 °C 34520.3 hPa West 29.8 km/h 29.8 km/h 64 % 0 mm 214.0 W/m2 CLR
08:31 -7 °C -11 °C 34520.3 hPa West 23.8 km/h 23.8 km/h 63 % 0 mm 227.0 W/m2 CLR
08:36 -6.9 °C -10.8 °C 34520.3 hPa WNW 29.8 km/h 29.8 km/h 64 % 0 mm 246.0 W/m2 CLR
08:41 -6.8 °C -10.7 °C 34520.3 hPa West 15 km/h 15 km/h 64 % 0 mm 258.0 W/m2 CLR
08:46 -6.7 °C -10.8 °C 34520.3 hPa West 17.9 km/h 17.9 km/h 63 % 0 mm 276.0 W/m2 CLR
08:51 -6.6 °C -10.9 °C 34520.3 hPa WNW 23.8 km/h 23.8 km/h 61 % 0 mm 294.0 W/m2 CLR
08:56 -6.6 °C -10.7 °C 34520.3 hPa NW 11.9 km/h 11.9 km/h 62 % 0 mm 309.0 W/m2 CLR
09:01 -6.5 °C -10.8 °C 34520.3 hPa NW 29.8 km/h 29.8 km/h 61 % 0 mm 325.0 W/m2 CLR
09:06 -6.4 °C -10.9 °C 34533.8 hPa WNW 26.9 km/h 26.9 km/h 60 % 0 mm 339.0 W/m2 CLR
09:11 -6.4 °C -10.9 °C 34533.8 hPa NNW 26.9 km/h 26.9 km/h 60 % 0 mm 350.0 W/m2 CLR
09:16 -6.3 °C -10.8 °C 34520.3 hPa West 15.6 km/h 15.6 km/h 60 % 0 mm 367.0 W/m2 CLR
09:21 -6.3 °C -10.8 °C 34520.3 hPa WNW 35.7 km/h 35.7 km/h 60 % 0 mm 413.0 W/m2 CLR
09:26 -6.3 °C -10.7 °C 34533.8 hPa WNW 41.7 km/h 41.7 km/h 60 % 0 mm 469.0 W/m2 CLR
09:31 -6.2 °C -10.7 °C 34520.3 hPa WNW 29.8 km/h 29.8 km/h 60 % 0 mm 512.0 W/m2 CLR
09:36 -6.2 °C -10.8 °C 34520.3 hPa West 36.2 km/h 36.2 km/h 59 % 0 mm 515.0 W/m2 CLR
09:41 -6.2 °C -10.8 °C 34520.3 hPa West 29.8 km/h 29.8 km/h 59 % 0 mm 536.0 W/m2 CLR
09:46 -6.1 °C -10.9 °C 34520.3 hPa NW 32.8 km/h 32.8 km/h 58 % 0 mm 563.0 W/m2 CLR
09:51 -5.9 °C -10.7 °C 34520.3 hPa SW 23.8 km/h 23.8 km/h 58 % 0 mm 610.0 W/m2 CLR
09:56 -6 °C -10.6 °C 34520.3 hPa SW 7.7 km/h   59 % 0 mm 459.0 W/m2 CLR
10:01 -5.9 °C -10.7 °C 34520.3 hPa WSW 6 km/h   58 % 0 mm 381.0 W/m2 CLR
10:06 -5.8 °C -10.7 °C 34520.3 hPa WNW 26.9 km/h 26.9 km/h 57 % 0 mm 439.0 W/m2 CLR
10:11 -5.7 °C -10.6 °C 34520.3 hPa WNW 23.8 km/h 23.8 km/h 57 % 0 mm 606.0 W/m2 CLR
10:16 -5.6 °C -10.8 °C 34520.3 hPa WNW 17.9 km/h 17.9 km/h 55 % 0 mm 589.0 W/m2 CLR
10:21 -5.5 °C -10.6 °C 34520.3 hPa NW 7.7 km/h 7.7 km/h 56 % 0 mm 585.0 W/m2 CLR
10:26 -5.4 °C -10.7 °C 34520.3 hPa NW 23.8 km/h 23.8 km/h 55 % 0 mm 605.0 W/m2 CLR
10:31 -5.4 °C -10.7 °C 34520.3 hPa NNW 20.9 km/h 20.9 km/h 55 % 0 mm 643.0 W/m2 CLR
10:36 -5.3 °C -10.6 °C 34520.3 hPa Calm     55 % 0 mm 603.0 W/m2 CLR
10:41 -5.3 °C -10.7 °C 34520.3 hPa NW 17.9 km/h 17.9 km/h 54 % 0 mm 605.0 W/m2 CLR
10:46 -5.2 °C -10.5 °C 34520.3 hPa NW 17.9 km/h 17.9 km/h 55 % 0 mm 527.0 W/m2 CLR
10:51 -5.2 °C -10.7 °C 34520.3 hPa WNW 15 km/h 15 km/h 54 % 0 mm 650.0 W/m2 CLR
10:56 -5.1 °C -10.7 °C 34520.3 hPa West 11.9 km/h 11.9 km/h 53 % 0 mm 524.0 W/m2 CLR
11:01 -5.1 °C -10.5 °C 34520.3 hPa WNW 15 km/h 15 km/h 54 % 0 mm 422.0 W/m2 CLR
11:06 -5.2 °C -10.7 °C 34520.3 hPa Calm     54 % 0 mm 427.0 W/m2 CLR
11:11 -5.1 °C -10.5 °C 34510.1 hPa WNW 9 km/h   54 % 0 mm 441.0 W/m2 CLR
11:16 -5.1 °C -10.7 °C 34510.1 hPa Calm     53 % 0 mm 513.0 W/m2 CLR
11:21 -4.8 °C -10.4 °C 34510.1 hPa Calm     53 % 0 mm 526.0 W/m2 CLR
11:26 -4.6 °C -10.6 °C 34510.1 hPa West 15 km/h 15 km/h 51 % 0 mm 584.0 W/m2 CLR
11:31 -4.6 °C -10.6 °C 34510.1 hPa NNW 15 km/h 15 km/h 51 % 0 mm 545.0 W/m2 CLR
11:36 -4.6 °C -10.5 °C 34510.1 hPa NNW 15 km/h 15 km/h 51 % 0 mm 559.0 W/m2 CLR
11:41 -4.3 °C -10.5 °C 34510.1 hPa Calm     50 % 0 mm 687.0 W/m2 CLR
11:46 -4.3 °C -10.7 °C 34510.1 hPa West 20.9 km/h 20.9 km/h 49 % 0 mm 800.0 W/m2 CLR
11:51 -4.3 °C -10.5 °C 34510.1 hPa Calm     50 % 0 mm 791.0 W/m2 CLR
11:56 -4.3 °C -10.4 °C 34496.6 hPa Calm     50 % 0 mm 779.0 W/m2 CLR
12:01 -4.1 °C -10.4 °C 34496.6 hPa Calm     49 % 0 mm 786.0 W/m2 CLR
12:06 -3.9 °C -10.4 °C 34496.6 hPa West 26.9 km/h 26.9 km/h 48 % 0 mm 803.0 W/m2 CLR
12:11 -3.8 °C -10.4 °C 34496.6 hPa Calm   4.2 km/h 48 % 0 mm 812.0 W/m2 CLR
12:17 -3.6 °C -10.2 °C 34496.6 hPa Calm   0.5 km/h 48 % 0 mm 824.0 W/m2 CLR
12:22 -3.5 °C -10.4 °C 34496.6 hPa Calm     46 % 0 mm 833.0 W/m2 CLR
12:27 -3.3 °C -10.2 °C 34496.6 hPa NW 15 km/h 15 km/h 46 % 0 mm 840.0 W/m2 CLR
12:32 -3.3 °C -10.2 °C 34496.6 hPa West 15 km/h 15 km/h 46 % 0 mm 847.0 W/m2 CLR
12:37 -3.2 °C -10.1 °C 34496.6 hPa Calm   6.4 km/h 47 % 0 mm 853.0 W/m2 CLR
12:42 -3.2 °C -10.2 °C 34496.6 hPa Calm     46 % 0 mm 860.0 W/m2 CLR
12:47 -3.1 °C -10.2 °C 34486.4 hPa Calm     45 % 0 mm 867.0 W/m2 CLR
12:52 -3 °C -10.2 °C 34486.4 hPa SW 11.9 km/h 11.9 km/h 45 % 0 mm 875.0 W/m2 CLR
12:57 -2.8 °C -9.8 °C 34486.4 hPa ENE 12.9 km/h   46 % 0 mm 882.0 W/m2 CLR
13:02 -2.7 °C -10.1 °C 34486.4 hPa ENE 20.9 km/h 20.9 km/h 44 % 0 mm 886.0 W/m2 CLR
13:07 -2.6 °C -10 °C 34486.4 hPa North 15.6 km/h 15.6 km/h 44 % 0 mm 886.0 W/m2 CLR
13:12 -2.7 °C -10.1 °C 34486.4 hPa North 15 km/h 15 km/h 44 % 0 mm 888.0 W/m2 CLR
13:17 -2.7 °C -10.1 °C 34486.4 hPa ENE 17.9 km/h 17.9 km/h 44 % 0 mm 895.0 W/m2 CLR
13:22 -2.7 °C -10.1 °C 34486.4 hPa ENE 23.8 km/h 23.8 km/h 44 % 0 mm 900.0 W/m2 CLR
13:27 -2.7 °C -9.9 °C 34476.3 hPa North 12.9 km/h 12.9 km/h 45 % 0 mm 909.0 W/m2 CLR
13:32 -2.6 °C -9.8 °C 34476.3 hPa Calm     45 % 0 mm 907.0 W/m2 CLR
13:37 -2.4 °C -9.9 °C 34476.3 hPa East 23.8 km/h 23.8 km/h 44 % 0 mm 909.0 W/m2 CLR
13:42 -2.5 °C -9.9 °C 34476.3 hPa ENE 15 km/h 15 km/h 44 % 0 mm 911.0 W/m2 CLR
13:47 -2.4 °C -9.8 °C 34462.7 hPa ENE 9 km/h 9 km/h 44 % 0 mm 918.0 W/m2 CLR
13:52 -2.3 °C -9.8 °C 34462.7 hPa East 10.3 km/h 10.3 km/h 44 % 0 mm 926.0 W/m2 CLR
13:57 -2.4 °C -10 °C 34462.7 hPa ENE 9 km/h 9 km/h 43 % 0 mm 923.0 W/m2 CLR
14:02 -2.3 °C -9.9 °C 34462.7 hPa East 23.8 km/h 23.8 km/h 43 % 0 mm 919.0 W/m2 CLR
14:07 -2.2 °C -9.8 °C 34462.7 hPa ENE 26.9 km/h 26.9 km/h 43 % 0 mm 916.0 W/m2 CLR
14:12 -2.2 °C -9.8 °C 34462.7 hPa Calm     43 % 0 mm 916.0 W/m2 CLR
14:17 -2.1 °C -9.9 °C 34452.6 hPa Calm     42 % 0 mm 916.0 W/m2 CLR
14:22 -1.9 °C -9.6 °C 34452.6 hPa NE 41.4 km/h 41.4 km/h 43 % 0 mm 911.0 W/m2 CLR
14:27 -1.7 °C -9.6 °C 34452.6 hPa NE 20.9 km/h 20.9 km/h 42 % 0 mm 909.0 W/m2 CLR
14:32 -1.6 °C -9.7 °C 34452.6 hPa Calm     41 % 0 mm 905.0 W/m2 CLR
14:37 -1.4 °C -9.6 °C 34452.6 hPa NE 9 km/h 9 km/h 41 % 0 mm 912.0 W/m2 CLR
14:42 -1.4 °C -9.6 °C 34452.6 hPa East 3.1 km/h 3.1 km/h 41 % 0 mm 900.0 W/m2 CLR
14:47 -1.4 °C -9.5 °C 34442.4 hPa ENE 12.9 km/h 12.9 km/h 41 % 0 mm 905.0 W/m2 CLR
14:52 -1.5 °C -9.6 °C 34442.4 hPa ENE 10.3 km/h 10.3 km/h 41 % 0 mm 898.0 W/m2 CLR
14:57 -1.5 °C -9.6 °C 34442.4 hPa Calm     41 % 0 mm 895.0 W/m2 CLR
14:59 -1.4 °C -9.3 °C 34442.4 hPa East 7.7 km/h 7.7 km/h 42 % 0 mm 893.0 W/m2 CLR
15:04 -1.3 °C -9.6 °C 34442.4 hPa East 23.8 km/h 23.8 km/h 40 % 0 mm 888.0 W/m2 CLR
15:09 -1.3 °C -9.4 °C 34442.4 hPa ENE 7.7 km/h 7.7 km/h 41 % 0 mm 884.0 W/m2 CLR
15:14 -1.3 °C -9.5 °C 34428.8 hPa NE 7.7 km/h 7.7 km/h 41 % 0 mm 882.0 W/m2 CLR
15:19 -1.1 °C -9.4 °C 34428.8 hPa ENE 11.9 km/h 11.9 km/h 40 % 0 mm 875.0 W/m2 CLR
15:24 -0.9 °C -9.5 °C 34428.8 hPa NE 17.9 km/h 17.9 km/h 39 % 0 mm 872.0 W/m2 CLR
15:29 -1 °C -9.6 °C 34428.8 hPa East 15.6 km/h 15.6 km/h 39 % 0 mm 867.0 W/m2 CLR
15:34 -1.1 °C -9.3 °C 34428.8 hPa ENE 17.9 km/h 17.9 km/h 41 % 0 mm 860.0 W/m2 CLR
15:39 -0.8 °C -9.2 °C 34428.8 hPa NNW 23.8 km/h 23.8 km/h 40 % 0 mm 854.0 W/m2 CLR
15:44 -0.6 °C -9.3 °C 34428.8 hPa NE 15 km/h 15 km/h 39 % 0 mm 844.0 W/m2 CLR
15:49 -0.6 °C -9.2 °C 34418.7 hPa ENE 9 km/h 9 km/h 39 % 0 mm 838.0 W/m2 CLR
15:54 -0.5 °C -9.4 °C 34418.7 hPa Calm     38 % 0 mm 828.0 W/m2 CLR
15:59 -0.4 °C -9.3 °C 34418.7 hPa Calm     38 % 0 mm 824.0 W/m2 CLR
16:04 -0.5 °C -9.4 °C 34418.7 hPa Calm     38 % 0 mm 816.0 W/m2 CLR
16:09 -0.4 °C -9.5 °C 34418.7 hPa NW 26.9 km/h 26.9 km/h 37 % 0 mm 802.0 W/m2 CLR
16:14 -0.4 °C -9.6 °C 34418.7 hPa NW 15 km/h 15 km/h 37 % 0 mm 798.0 W/m2 CLR
16:19 -0.4 °C -9.3 °C 34418.7 hPa Calm     38 % 0 mm 784.0 W/m2 CLR
16:24 -0.3 °C -9.4 °C 34405.1 hPa Calm     37 % 0 mm 775.0 W/m2 CLR
16:29 -0.1 °C -9.3 °C 34405.1 hPa Calm     37 % 0 mm 770.0 W/m2 CLR
16:34 -0.1 °C -9.5 °C 34405.1 hPa NE 12.9 km/h 12.9 km/h 36 % 0 mm 756.0 W/m2 CLR
16:39 -0.1 °C -9.4 °C 34395 hPa ENE 11.9 km/h 11.9 km/h 36 % 0 mm 745.0 W/m2 CLR
16:44 0.1 °C -9.3 °C 34395 hPa Calm     36 % 0 mm 744.0 W/m2 CLR
16:49 0.2 °C -9.3 °C 34395 hPa NNW 15 km/h 15 km/h 36 % 0 mm 731.0 W/m2 CLR
16:54 0.1 °C -9.3 °C 34395 hPa NE 15 km/h 15 km/h 36 % 0 mm 719.0 W/m2 CLR
16:59 0.1 °C -9.4 °C 34395 hPa ENE 3.1 km/h 3.1 km/h 36 % 0 mm 707.0 W/m2 CLR
17:04 -0.1 °C -9.3 °C 34384.8 hPa Calm     37 % 0 mm 694.0 W/m2 CLR
17:09 0.1 °C -9.1 °C 34384.8 hPa NNE 20.9 km/h 20.9 km/h 37 % 0 mm 682.0 W/m2 CLR
17:14 0.2 °C -9.3 °C 34384.8 hPa NNW 15 km/h 15 km/h 36 % 0 mm 671.0 W/m2 CLR
17:19 0.2 °C -9.3 °C 34384.8 hPa WNW 6 km/h   36 % 0 mm 654.0 W/m2 CLR
17:24 0.2 °C -9.2 °C 34384.8 hPa Calm     36 % 0 mm 643.0 W/m2 CLR
17:29 0.4 °C -9.1 °C 34384.8 hPa Calm     36 % 0 mm 631.0 W/m2 CLR
17:34 0.6 °C -9.1 °C 34371.3 hPa Calm     35 % 0 mm 619.0 W/m2 CLR
17:39 0.7 °C -9.1 °C 34371.3 hPa Calm     35 % 0 mm 606.0 W/m2 CLR
17:44 0.7 °C -9.1 °C 34371.3 hPa East 11.9 km/h 11.9 km/h 35 % 0 mm 587.0 W/m2 CLR
17:49 0.5 °C -9.2 °C 34371.3 hPa ENE 11.9 km/h 11.9 km/h 35 % 0 mm 577.0 W/m2 CLR
17:54 0.3 °C -8.9 °C 34371.3 hPa NNE 9 km/h 9 km/h 37 % 0 mm 568.0 W/m2 CLR
17:59 0.3 °C -9.2 °C 34371.3 hPa Calm     36 % 0 mm 552.0 W/m2 CLR
18:04 0.2 °C -9 °C 34371.3 hPa Calm     37 % 0 mm 536.0 W/m2 CLR
18:09 0.2 °C -9 °C 34371.3 hPa North 15.6 km/h 15.6 km/h 37 % 0 mm 520.0 W/m2 CLR
18:14 0.2 °C -8.9 °C 34384.8 hPa NNE 11.9 km/h 11.9 km/h 37 % 0 mm 508.0 W/m2 CLR
18:19 0.3 °C -8.9 °C 34384.8 hPa NE 9 km/h 9 km/h 37 % 0 mm 490.0 W/m2 CLR
18:24 0.3 °C -8.9 °C 34384.8 hPa NE 3.1 km/h   37 % 0 mm 475.0 W/m2 CLR
18:29 0.4 °C -8.8 °C 34384.8 hPa Calm     37 % 0 mm 464.0 W/m2 CLR
18:34 0.5 °C -8.7 °C 34384.8 hPa ENE 9 km/h 9 km/h 37 % 0 mm 448.0 W/m2 CLR
18:39 0.4 °C -9 °C 34371.3 hPa NNE 10.3 km/h 10.3 km/h 36 % 0 mm 434.0 W/m2 CLR
18:44 0.4 °C -8.8 °C 34371.3 hPa NE 9 km/h 9 km/h 37 % 0 mm 417.0 W/m2 CLR
18:49 0.5 °C -8.7 °C 34371.3 hPa NE 17.9 km/h 17.9 km/h 37 % 0 mm 403.0 W/m2 CLR
18:54 0.4 °C -8.8 °C 34371.3 hPa NE 17.9 km/h 17.9 km/h 37 % 0 mm 388.0 W/m2 CLR
19:00 0.5 °C -8.7 °C 34361.1 hPa Calm     37 % 0 mm 373.0 W/m2 CLR
19:05 0.6 °C -8.7 °C 34361.1 hPa Calm     37 % 0 mm 353.0 W/m2 CLR
19:10 0.7 °C -8.8 °C 34371.3 hPa Calm     36 % 0 mm 341.0 W/m2 CLR
19:15 0.7 °C -8.8 °C 34361.1 hPa NE 9 km/h 9 km/h 36 % 0 mm 325.0 W/m2 CLR
19:20 0.6 °C -8.8 °C 34361.1 hPa Calm     36 % 0 mm 308.0 W/m2 CLR
19:25 0.5 °C -8.9 °C 34361.1 hPa NNW 9 km/h 9 km/h 36 % 0 mm 292.0 W/m2 CLR
19:30 0.5 °C -8.7 °C 34371.3 hPa WNW 6 km/h   37 % 0 mm 274.0 W/m2 CLR
19:35 0.6 °C -8.9 °C 34361.1 hPa NNW 9 km/h 9 km/h 36 % 0 mm 258.0 W/m2 CLR
19:40 0.5 °C -8.7 °C 34371.3 hPa WNW 15 km/h 15 km/h 37 % 0 mm 248.0 W/m2 CLR
19:41 0.5 °C -8.7 °C 34371.3 hPa WNW 6 km/h   37 % 0 mm 243.0 W/m2 CLR
19:46 0.5 °C -8.7 °C 34361.1 hPa NNE 15 km/h 15 km/h 37 % 0 mm 225.0 W/m2 CLR
19:51 0.4 °C -8.8 °C 34371.3 hPa North 9 km/h 9 km/h 37 % 0 mm 206.0 W/m2 CLR
19:56 0.4 °C -8.8 °C 34371.3 hPa North 3.1 km/h 3.1 km/h 37 % 0 mm 190.0 W/m2 CLR
20:01 0.4 °C -8.8 °C 34371.3 hPa NNW 9 km/h 9 km/h 37 % 0 mm 174.0 W/m2 CLR
20:06 0.3 °C -8.9 °C 34371.3 hPa NNW 6 km/h   37 % 0 mm 156.0 W/m2 CLR
20:11 0.3 °C -8.9 °C 34371.3 hPa Calm     37 % 0 mm 141.0 W/m2 CLR
20:16 0.3 °C -8.9 °C 34371.3 hPa Calm     37 % 0 mm 125.0 W/m2 CLR
20:21 0.3 °C -8.7 °C 34371.3 hPa North 3.1 km/h 3.1 km/h 38 % 0 mm 109.0 W/m2 CLR
20:26 0.2 °C -8.7 °C 34371.3 hPa North 3.1 km/h 3.1 km/h 38 % 0 mm 97.0 W/m2 CLR
20:31 0.2 °C -8.5 °C 34371.3 hPa Calm     39 % 0 mm 81.0 W/m2 FEW
20:36 0.2 °C -8.6 °C 34371.3 hPa Calm     39 % 0 mm 69.0 W/m2 FEW
20:41 0.1 °C -8.7 °C 34371.3 hPa North 11.9 km/h 11.9 km/h 39 % 0 mm 58.0 W/m2 SCT
20:46 -0.1 °C -8.6 °C 34371.3 hPa North 3.1 km/h   40 % 0 mm 47.0 W/m2 SCT
20:51 -0.2 °C -8.5 °C 34371.3 hPa Calm     41 % 0 mm 37.0 W/m2 BKN
20:56 -0.3 °C -8.6 °C 34384.8 hPa Calm     41 % 0 mm 28.0 W/m2 BKN
21:01 -0.4 °C -8.5 °C 34371.3 hPa Calm     42 % 0 mm 21.0 W/m2 BKN
21:06 -0.6 °C -8.6 °C 34371.3 hPa Calm     42 % 0 mm 19.0 W/m2 BKN
21:11 -0.7 °C -8.7 °C 34384.8 hPa Calm     42 % 0 mm 16.0 W/m2 BKN
21:16 -0.8 °C -8.6 °C 34384.8 hPa Calm     43 % 0 mm 12.0 W/m2 BKN
21:21 -0.9 °C -8.5 °C 34384.8 hPa Calm     44 % 0 mm 11.0 W/m2 BKN
21:26 -1.1 °C -8.4 °C 34384.8 hPa Calm     45 % 0 mm 7.0 W/m2 BKN
21:31 -1.2 °C -8.5 °C 34384.8 hPa ENE 3.1 km/h 3.1 km/h 45 % 0 mm 5.0 W/m2 OVC
21:36 -1.2 °C -7.8 °C 34384.8 hPa Calm     49 % 0 mm 0.0 W/m2 OVC
21:41 -1.3 °C -7.6 °C 34395 hPa Calm     51 % 0 mm 0.0 W/m2 CLR
21:46 -1.4 °C -7.4 °C 34395 hPa Calm     52 % 0 mm 0.0 W/m2 CLR
21:51 -1.6 °C -7.4 °C 34395 hPa Calm     53 % 0 mm 0.0 W/m2 CLR
21:56 -1.7 °C -7.6 °C 34395 hPa Calm     53 % 0 mm 0.0 W/m2 CLR
22:01 -1.8 °C -7.6 °C 34395 hPa Calm     53 % 0 mm 0.0 W/m2 CLR
22:06 -1.9 °C -7.6 °C 34405.1 hPa Calm     54 % 0 mm 0.0 W/m2 CLR
22:11 -2 °C -7.4 °C 34405.1 hPa Calm     55 % 0 mm 0.0 W/m2 CLR
22:16 -2.1 °C -7.4 °C 34405.1 hPa Calm     56 % 0 mm 0.0 W/m2 CLR
22:17 -2.1 °C -7.4 °C 34405.1 hPa Calm     56 % 0 mm 0.0 W/m2 CLR
22:22 -2.2 °C -7.4 °C 34418.7 hPa Calm     57 % 0 mm 0.0 W/m2 CLR
22:27 -2.2 °C -6.9 °C 34418.7 hPa Calm     60 % 0 mm 0.0 W/m2 CLR
22:32 -2.3 °C -7 °C 34418.7 hPa Calm     60 % 0 mm 0.0 W/m2 CLR
22:37 -2.3 °C -7.2 °C 34418.7 hPa Calm     59 % 0 mm 0.0 W/m2 CLR
22:42 -2.6 °C -7.2 °C 34418.7 hPa Calm     60 % 0 mm 0.0 W/m2 CLR
22:47 -2.7 °C -7.1 °C 34428.8 hPa Calm     62 % 0 mm 0.0 W/m2 CLR
22:52 -2.9 °C -8 °C 34428.8 hPa Calm     57 % 0 mm 0.0 W/m2 CLR
22:57 -3 °C -7.7 °C 34428.8 hPa Calm     60 % 0 mm 0.0 W/m2 CLR
23:02 -3.2 °C -7.7 °C 34428.8 hPa Calm     61 % 0 mm 0.0 W/m2 CLR
23:07 -3.3 °C -7.8 °C 34428.8 hPa Calm     61 % 0 mm 0.0 W/m2 CLR
23:12 -3.4 °C -8.2 °C 34442.4 hPa Calm     59 % 0 mm 0.0 W/m2 CLR
23:17 -3.5 °C -8.4 °C 34442.4 hPa Calm     58 % 0 mm 0.0 W/m2 CLR
23:22 -3.6 °C -8.4 °C 34442.4 hPa Calm     59 % 0 mm 0.0 W/m2 CLR
23:27 -3.7 °C -8.3 °C 34442.4 hPa Calm     60 % 0 mm 0.0 W/m2 CLR
23:32 -3.8 °C -8.7 °C 34442.4 hPa Calm     58 % 0 mm 0.0 W/m2 CLR
23:37 -3.9 °C -8.7 °C 34442.4 hPa Calm     59 % 0 mm 0.0 W/m2 CLR
23:42 -4.1 °C -8.7 °C 34442.4 hPa Calm     60 % 0 mm 0.0 W/m2 CLR
23:47 -4.1 °C -8.7 °C 34442.4 hPa Calm     60 % 0 mm 0.0 W/m2 CLR
23:52 -4.2 °C -8.8 °C 34452.6 hPa Calm     60 % 0 mm 0.0 W/m2 CLR
23:57 -4.3 °C -8.8 °C 34452.6 hPa Calm     60 % 0 mm 0.0 W/m2 CLR
Lo Temps de Massalio
Compliments of Weather Underground - 1.25 mb